Time;durP1;ratioP1;P1;durP2;ratioP2;P2;SDS_P1;SDS_P2;PMS_P1;PMS_P2;Temp;Humidity;BMP_temperature;BMP_pressure;BME280_temperature;BME280_humidity;BME280_pressure;Samples;Min_cycle;Max_cycle;Signal;HPM_P1;HPM_P2
2022/04/19 00:01:56;;;;;;;5.70;4.10;;;;;;;2.23;72.78;93354.41;4991444;28;20219;-74
2022/04/19 00:04:22;;;;;;;7.28;4.00;;;;;;;2.61;71.17;93342.31;4993585;28;20037;-73
2022/04/19 00:06:47;;;;;;;7.45;4.75;;;;;;;2.88;69.62;93332.13;4985583;28;20034;-74
2022/04/19 00:09:13;;;;;;;6.18;4.53;;;;;;;2.60;69.70;93336.28;4987359;28;20118;-73
2022/04/19 00:11:38;;;;;;;5.05;3.90;;;;;;;2.89;69.14;93342.34;4985551;28;20763;-73
2022/04/19 00:14:07;;;;;;;4.70;2.70;;;;;;;2.97;68.18;93335.72;4985322;28;20042;-73
2022/04/19 00:16:32;;;;;;;4.20;2.58;;;;;;;3.07;67.83;93319.06;4986151;28;20026;-72
2022/04/19 00:18:57;;;;;;;2.35;2.15;;;;;;;2.61;67.93;93337.06;4986515;28;20061;-73
2022/04/19 00:21:23;;;;;;;3.70;2.13;;;;;;;1.94;70.44;93335.94;4990775;28;20053;-73
2022/04/19 00:23:49;;;;;;;4.82;2.40;;;;;;;1.67;72.82;93339.69;4988152;28;20111;-73
2022/04/19 00:26:15;;;;;;;2.65;2.42;;;;;;;1.92;72.30;93324.94;4990093;28;20050;-73
2022/04/19 00:28:41;;;;;;;3.70;2.55;;;;;;;1.74;72.21;93328.13;4988105;28;20033;-75
2022/04/19 00:31:07;;;;;;;5.80;3.38;;;;;;;1.11;75.01;93320.00;4985430;28;20022;-74
2022/04/19 00:33:32;;;;;;;4.13;2.50;;;;;;;1.47;74.88;93334.53;4991074;28;20033;-73
2022/04/19 00:35:58;;;;;;;5.00;2.58;;;;;;;1.71;74.17;93326.06;4981057;28;20048;-72
2022/04/19 00:38:23;;;;;;;2.40;1.90;;;;;;;1.20;74.11;93272.03;4985195;28;20033;-72
2022/04/19 00:40:48;;;;;;;3.60;2.38;;;;;;;1.07;75.61;93329.44;4986693;28;20077;-72
2022/04/19 00:43:18;;;;;;;3.00;1.83;;;;;;;1.10;75.76;93292.22;4986258;28;20030;-72
2022/04/19 00:45:43;;;;;;;2.80;1.95;;;;;;;1.43;75.46;93302.06;4987294;28;20057;-73
2022/04/19 00:48:10;;;;;;;2.33;1.95;;;;;;;1.07;75.57;93313.72;4981555;28;20414;-74
2022/04/19 00:50:35;;;;;;;2.63;1.95;;;;;;;1.14;75.91;93311.59;4985601;28;20613;-73
2022/04/19 00:53:02;;;;;;;1.45;1.35;;;;;;;1.13;75.55;93296.94;4991018;28;21452;-73
2022/04/19 00:55:29;;;;;;;2.42;2.10;;;;;;;0.86;75.80;93286.00;4991794;28;20026;-72
2022/04/19 00:57:54;;;;;;;3.67;2.78;;;;;;;1.19;76.19;93291.41;4980841;28;20042;-73
2022/04/19 01:00:20;;;;;;;6.10;3.78;;;;;;;1.94;74.28;93305.25;4984827;28;20085;-73
2022/04/19 01:02:46;;;;;;;7.50;4.13;;;;;;;1.81;72.79;93300.59;4982940;28;20113;-73
2022/04/19 01:05:12;;;;;;;6.25;3.88;;;;;;;1.99;72.84;93307.06;4986944;28;20081;-73
2022/04/19 01:07:39;;;;;;;5.70;4.07;;;;;;;1.93;72.38;93300.28;4980060;28;20026;-72
2022/04/19 01:10:05;;;;;;;4.95;3.17;;;;;;;2.00;72.48;93308.63;4989495;28;20051;-72
2022/04/19 01:15:15;;;;;;;3.40;2.73;;;;;;;1.87;73.53;93314.47;4986984;28;20092;-73
2022/04/19 01:17:40;;;;;;;5.32;4.10;;;;;;;2.33;71.62;93289.53;4978114;28;20034;-73
2022/04/19 01:20:07;;;;;;;7.20;4.55;;;;;;;2.59;70.51;93302.44;4983747;28;20048;-72
2022/04/19 01:22:34;;;;;;;4.88;3.17;;;;;;;2.80;69.11;93293.31;4979102;28;20129;-73
2022/04/19 01:24:59;;;;;;;3.38;2.47;;;;;;;2.09;69.99;93284.19;4988844;28;20014;-73
2022/04/19 01:27:25;;;;;;;5.65;3.42;;;;;;;2.22;70.87;93298.50;4985477;28;20041;-73
2022/04/19 01:29:53;;;;;;;2.00;1.77;;;;;;;2.70;69.64;93303.91;4983479;28;20042;-73
2022/04/19 01:32:20;;;;;;;1.98;1.70;;;;;;;2.51;68.56;93270.47;4985340;28;20524;-73
2022/04/19 01:34:46;;;;;;;2.20;1.95;;;;;;;2.15;69.55;93292.03;4983619;28;20134;-74
2022/04/19 01:37:12;;;;;;;1.92;1.60;;;;;;;2.63;69.35;93283.25;4985269;28;20477;-73
2022/04/19 01:42:21;;;;;;;2.22;1.70;;;;;;;1.37;72.91;93266.47;4981687;28;20687;-73
2022/04/19 01:44:47;;;;;;;2.45;2.05;;;;;;;2.30;71.72;93295.31;4982517;28;20030;-72
2022/04/19 01:47:13;;;;;;;4.45;3.08;;;;;;;2.53;70.04;93299.84;4982433;28;20120;-73
2022/04/19 01:49:38;;;;;;;2.47;2.25;;;;;;;2.20;70.58;93295.41;4982434;28;20034;-73
2022/04/19 01:52:08;;;;;;;3.70;2.28;;;;;;;2.19;70.53;93280.69;4976712;28;20030;-74
2022/04/19 01:54:33;;;;;;;2.35;1.77;;;;;;;2.44;70.18;93277.09;4988561;28;20072;-73
2022/04/19 01:56:59;;;;;;;4.70;3.25;;;;;;;2.69;68.80;93299.72;4982881;28;20129;-73
2022/04/19 01:59:24;;;;;;;4.38;3.35;;;;;;;2.74;68.46;93297.06;4985607;28;20034;-73
2022/04/19 02:01:50;;;;;;;2.70;2.35;;;;;;;2.78;67.47;93262.09;4985160;28;20042;-73
2022/04/19 02:04:15;;;;;;;3.33;2.17;;;;;;;2.37;67.26;93209.19;4986795;28;20018;-73
2022/04/19 02:06:42;;;;;;;3.28;2.90;;;;;;;3.10;66.64;93292.22;4979237;28;20042;-73
2022/04/19 02:09:07;;;;;;;4.15;2.83;;;;;;;2.95;66.63;93287.91;4983033;28;20057;-72
2022/04/19 02:11:33;;;;;;;3.10;2.53;;;;;;;2.97;66.85;93293.69;4979639;28;20057;-73
2022/04/19 02:13:59;;;;;;;2.83;2.22;;;;;;;2.74;67.37;93283.94;4979256;28;20133;-72
2022/04/19 02:16:24;;;;;;;14.55;7.25;;;;;;;3.03;66.87;93287.31;4984464;28;20108;-73
2022/04/19 02:18:49;;;;;;;3.75;3.17;;;;;;;2.99;66.55;93259.28;4978853;28;20034;-72
2022/04/19 02:21:15;;;;;;;3.33;2.70;;;;;;;3.33;65.46;93286.97;4984731;28;20046;-72
2022/04/19 02:23:40;;;;;;;2.83;2.33;;;;;;;3.44;64.93;93281.59;4983022;28;20030;-73
2022/04/19 02:26:06;;;;;;;2.20;1.75;;;;;;;2.99;65.37;93265.28;4983490;28;20030;-73
2022/04/19 02:28:31;;;;;;;3.28;2.20;;;;;;;3.33;65.05;93276.47;4987755;28;20030;-72
2022/04/19 02:30:57;;;;;;;4.95;2.60;;;;;;;3.31;64.82;93288.34;4980966;28;20037;-72
2022/04/19 02:33:23;;;;;;;4.05;2.85;;;;;;;3.33;64.20;93239.66;4986540;28;20046;-72
2022/04/19 02:35:48;;;;;;;7.03;3.80;;;;;;;3.02;65.43;93270.00;4981895;28;20080;-73
2022/04/19 02:38:14;;;;;;;3.42;2.67;;;;;;;3.54;64.29;93297.25;4981214;28;20057;-73
2022/04/19 02:40:39;;;;;;;5.88;4.78;;;;;;;3.49;63.90;93273.66;4983119;28;20506;-73
2022/04/19 02:43:05;;;;;;;5.97;4.15;;;;;;;3.17;64.55;93271.66;4983226;28;20624;-73
2022/04/19 02:45:30;;;;;;;5.50;2.95;;;;;;;3.48;64.14;93293.91;4983709;28;20143;-73
2022/04/19 02:48:05;;;;;;;3.97;3.30;;;;;;;2.86;65.99;93292.22;4977419;28;20069;-74
2022/04/19 02:50:33;;;;;;;4.47;3.67;;;;;;;3.02;66.07;93285.75;4989850;28;20038;-73
2022/04/19 02:53:00;;;;;;;6.57;3.38;;;;;;;3.39;65.11;93293.75;4977290;28;20045;-73
2022/04/19 02:55:27;;;;;;;4.72;2.55;;;;;;;3.13;64.85;93260.94;4982502;28;20037;-74
2022/04/19 02:57:53;;;;;;;5.20;3.38;;;;;;;3.47;64.43;93286.31;4975051;28;20053;-73
2022/04/19 03:00:20;;;;;;;3.35;2.88;;;;;;;2.87;64.79;93220.25;4981338;28;20078;-72
2022/04/19 03:02:46;;;;;;;4.50;2.42;;;;;;;3.32;64.12;93274.91;4981950;28;20081;-73
2022/04/19 03:05:12;;;;;;;4.68;3.25;;;;;;;3.36;63.92;93306.66;4985785;28;20099;-73
2022/04/19 03:07:37;;;;;;;4.80;3.28;;;;;;;3.59;63.55;93305.09;4979049;28;20045;-72
2022/04/19 03:10:06;;;;;;;5.88;3.92;;;;;;;3.76;63.04;93313.31;5000495;28;20519;-73
2022/04/19 03:12:31;;;;;;;3.22;2.92;;;;;;;3.16;64.00;93291.91;4977231;28;20049;-73
2022/04/19 03:14:57;;;;;;;4.70;3.17;;;;;;;3.38;64.22;93300.06;4983787;28;20971;-72
2022/04/19 03:17:22;;;;;;;4.35;3.00;;;;;;;3.36;63.54;93291.69;4979760;28;20496;-73
2022/04/19 03:19:48;;;;;;;5.75;3.22;;;;;;;3.03;64.97;93323.31;4980927;28;20043;-73
2022/04/19 03:22:13;;;;;;;5.70;3.60;;;;;;;3.24;64.85;93319.41;4986270;28;20057;-73
2022/04/19 03:27:41;;;;;;;4.50;3.03;;;;;;;2.79;65.42;93304.91;4983359;28;20048;-73
2022/04/19 03:30:14;;;;;;;3.80;2.97;;;;;;;3.04;65.33;93330.91;4979624;28;20120;-72
2022/04/19 03:32:42;;;;;;;3.35;2.97;;;;;;;2.96;65.84;93306.03;4984129;28;20050;-73
2022/04/19 03:35:08;;;;;;;5.95;3.58;;;;;;;2.95;65.70;93322.06;4983645;28;20772;-73
2022/04/19 03:37:35;;;;;;;6.60;4.78;;;;;;;3.51;64.34;93324.91;4979530;28;20040;-72
2022/04/19 03:40:01;;;;;;;8.10;4.78;;;;;;;3.39;64.23;93325.28;4981659;28;20030;-73
2022/04/19 03:42:26;;;;;;;6.13;4.70;;;;;;;2.87;65.26;93323.47;4979499;28;20413;-72
2022/04/19 03:44:52;;;;;;;7.47;3.95;;;;;;;3.12;65.17;93322.44;4981351;28;20252;-73
2022/04/19 03:47:17;;;;;;;4.78;3.72;;;;;;;3.45;64.07;93338.38;4982525;28;20769;-72
2022/04/19 03:49:43;;;;;;;4.85;3.70;;;;;;;3.16;63.77;93327.91;4998324;28;20049;-73
2022/04/19 03:52:09;;;;;;;4.55;3.47;;;;;;;3.49;63.50;93336.75;4979944;28;20566;-74
2022/04/19 03:54:35;;;;;;;4.90;3.40;;;;;;;3.46;63.46;93332.06;4978391;28;20108;-73
2022/04/19 03:57:07;;;;;;;4.57;3.70;;;;;;;3.67;63.27;93342.06;4982371;28;20400;-73
2022/04/19 03:59:33;;;;;;;4.55;3.60;;;;;;;3.79;62.60;93339.03;4985482;28;20040;-72
2022/04/19 04:01:59;;;;;;;7.18;6.00;;;;;;;3.64;62.46;93312.91;4981357;28;20049;-73
2022/04/19 04:04:30;;;;;;;4.60;4.20;;;;;;;3.64;62.23;93305.03;4982746;28;20015;-74
2022/04/19 04:06:59;;;;;;;10.48;5.65;;;;;;;3.82;61.54;93338.47;4976745;28;20088;-73
2022/04/19 04:09:25;;;;;;;4.60;3.97;;;;;;;3.89;61.38;93335.50;4980690;28;20092;-72
2022/04/19 04:11:51;;;;;;;4.13;2.92;;;;;;;3.87;61.26;93354.19;4981363;28;20042;-73
2022/04/19 04:14:16;;;;;;;6.13;3.55;;;;;;;3.93;61.82;93353.06;4980677;28;20454;-72
2022/04/19 04:16:41;;;;;;;4.90;3.72;;;;;;;3.95;61.44;93355.41;4983493;28;20107;-73
2022/04/19 04:19:07;;;;;;;6.10;4.20;;;;;;;4.00;61.38;93358.78;4979417;28;20623;-72
2022/04/19 04:21:32;;;;;;;5.22;3.78;;;;;;;4.05;61.03;93356.06;4985447;28;20072;-72
2022/04/19 04:23:58;;;;;;;3.92;3.30;;;;;;;3.96;60.84;93336.72;4978821;28;20053;-72
2022/04/19 04:26:23;;;;;;;3.35;2.80;;;;;;;4.08;60.77;93360.75;4984411;28;20164;-73
2022/04/19 04:28:48;;;;;;;4.32;3.58;;;;;;;3.92;61.01;93351.47;4979083;28;20080;-73
2022/04/19 04:31:14;;;;;;;5.85;4.65;;;;;;;3.76;61.13;93343.03;4987787;28;20054;-73
2022/04/19 04:33:39;;;;;;;7.35;5.00;;;;;;;3.74;61.16;93345.13;4982258;28;20045;-73
2022/04/19 04:36:05;;;;;;;7.60;4.38;;;;;;;3.86;61.42;93370.25;4977275;28;20062;-73
2022/04/19 04:38:30;;;;;;;6.20;4.43;;;;;;;3.88;61.54;93370.75;4982414;28;20045;-73
2022/04/19 04:40:55;;;;;;;7.55;5.13;;;;;;;3.88;61.36;93370.75;4982946;28;20144;-74
2022/04/19 04:43:21;;;;;;;6.07;4.63;;;;;;;3.62;61.60;93325.56;4980918;28;20564;-73
2022/04/19 04:49:35;;;;;;;8.32;4.78;;;;;;;3.92;61.64;93377.00;4980422;28;20040;-74
2022/04/19 04:51:16;;;;;;;10.55;4.65;;;;;;;3.76;61.86;93371.94;4989926;28;20049;-73
2022/04/19 04:53:41;;;;;;;6.22;3.85;;;;;;;3.85;61.69;93374.75;4975562;28;20042;-72
2022/04/19 04:56:07;;;;;;;7.20;4.75;;;;;;;3.72;61.80;93351.75;4989340;28;20056;-73
2022/04/19 04:58:32;;;;;;;7.25;4.40;;;;;;;3.79;61.56;93362.72;4979009;28;20026;-72
2022/04/19 05:00:57;;;;;;;9.27;5.65;;;;;;;3.90;61.64;93385.19;4990068;28;20037;-73
2022/04/19 05:03:23;;;;;;;6.90;4.25;;;;;;;3.87;61.82;93385.00;4984160;28;20111;-74
2022/04/19 05:05:48;;;;;;;6.68;3.90;;;;;;;3.70;62.05;93356.50;4983836;28;20044;-74
2022/04/19 05:08:18;;;;;;;4.30;3.47;;;;;;;3.87;61.57;93379.72;4986910;28;20034;-72
2022/04/19 05:10:43;;;;;;;5.30;3.50;;;;;;;3.89;61.64;93381.00;4977136;28;20317;-72
2022/04/19 05:13:09;;;;;;;4.97;3.38;;;;;;;4.03;61.44;93389.78;4988958;28;20737;-72
2022/04/19 05:15:34;;;;;;;7.72;4.55;;;;;;;3.91;61.28;93370.19;4981745;28;20038;-73
2022/04/19 05:17:59;;;;;;;6.93;4.22;;;;;;;4.04;62.01;93385.28;4982881;28;20040;-72
2022/04/19 05:20:25;;;;;;;6.85;4.22;;;;;;;4.01;61.81;93376.13;4984431;28;20080;-73
2022/04/19 05:22:50;;;;;;;6.50;4.00;;;;;;;4.08;61.71;93384.44;4984360;28;20042;-72
2022/04/19 05:25:16;;;;;;;6.80;4.43;;;;;;;4.19;61.64;93388.53;4983512;28;20022;-73
2022/04/19 05:27:41;;;;;;;5.65;3.83;;;;;;;4.20;61.90;93395.34;4985335;28;20034;-73
2022/04/19 05:30:07;;;;;;;6.20;3.78;;;;;;;4.27;61.04;93395.78;4987526;28;20046;-73
2022/04/19 05:32:33;;;;;;;6.13;3.20;;;;;;;4.29;60.65;93392.88;4984173;28;20579;-73
2022/04/19 05:34:58;;;;;;;4.35;2.97;;;;;;;4.32;60.61;93391.53;4986949;28;20040;-72
2022/04/19 05:37:23;;;;;;;3.80;3.45;;;;;;;4.27;60.69;93395.78;4988831;28;20404;-73
2022/04/19 05:39:49;;;;;;;5.25;3.53;;;;;;;4.13;60.67;93355.44;4981698;28;20038;-73
2022/04/19 05:42:15;;;;;;;4.40;3.17;;;;;;;4.20;60.05;93369.03;4987432;28;20042;-73
2022/04/19 05:44:40;;;;;;;3.50;2.95;;;;;;;4.30;59.80;93398.94;4981938;28;20511;-74
2022/04/19 05:47:05;;;;;;;3.55;2.00;;;;;;;4.22;59.95;93398.47;4983638;28;20416;-74
2022/04/19 05:49:31;;;;;;;11.40;6.38;;;;;;;4.04;60.00;93399.25;4982679;28;20022;-73
2022/04/19 05:51:56;;;;;;;5.22;4.15;;;;;;;3.98;59.98;93374.03;4983784;28;20034;-73
2022/04/19 05:54:22;;;;;;;7.45;4.55;;;;;;;4.02;60.50;93403.97;4986673;28;20046;-73
2022/04/19 05:56:47;;;;;;;6.28;3.75;;;;;;;3.86;61.20;93404.47;4986001;28;20133;-73
2022/04/19 05:59:12;;;;;;;4.22;3.47;;;;;;;3.80;60.93;93395.84;4980658;28;20037;-73
2022/04/19 06:07:13;;;;;;;5.15;3.47;;;;;;;3.80;62.73;93386.09;4981697;28;20166;-73
2022/04/19 06:09:38;;;;;;;5.57;3.50;;;;;;;3.78;62.80;93387.44;4982952;28;20042;-72
2022/04/19 06:12:04;;;;;;;5.13;3.95;;;;;;;3.87;62.78;93411.28;4987279;28;20416;-72
2022/04/19 06:14:30;;;;;;;5.93;4.18;;;;;;;3.92;62.44;93414.63;4985047;28;20117;-73
2022/04/19 06:16:55;;;;;;;50.85;26.08;;;;;;;3.04;64.46;93393.97;4984484;28;20239;-72
2022/04/19 06:19:22;;;;;;;12.65;7.68;;;;;;;3.37;64.43;93393.16;4982836;28;20468;-74
2022/04/19 06:21:48;;;;;;;8.25;5.28;;;;;;;3.75;64.37;93417.72;4987946;28;20626;-73
2022/04/19 06:24:14;;;;;;;8.18;4.22;;;;;;;3.53;63.98;93383.22;4983407;28;20088;-73
2022/04/19 06:26:39;;;;;;;7.07;4.82;;;;;;;3.76;63.73;93415.88;4984418;28;20034;-73
2022/04/19 06:29:06;;;;;;;6.53;4.15;;;;;;;3.85;64.43;93422.09;4981463;28;20069;-73
2022/04/19 06:31:32;;;;;;;5.15;3.25;;;;;;;3.75;64.31;93393.28;4986269;28;20026;-74
2022/04/19 06:33:57;;;;;;;3.63;2.35;;;;;;;3.68;63.19;93434.88;4986259;28;22264;-73
2022/04/19 06:36:22;;;;;;;3.70;2.10;;;;;;;3.54;63.53;93402.44;4980366;28;20045;-73
2022/04/19 06:38:48;;;;;;;4.50;2.25;;;;;;;3.73;63.04;93430.38;4988031;28;20923;-73
2022/04/19 06:41:13;;;;;;;2.63;2.33;;;;;;;3.68;62.81;93440.16;4980542;28;20030;-72
2022/04/19 06:43:38;;;;;;;2.47;2.28;;;;;;;3.27;63.63;93416.09;4985922;28;20618;-72
2022/04/19 06:46:04;;;;;;;2.90;2.20;;;;;;;3.52;64.38;93431.66;4982559;28;20021;-73
2022/04/19 06:48:29;;;;;;;3.50;2.45;;;;;;;3.32;64.76;93397.66;4982146;28;20046;-74
2022/04/19 06:50:55;;;;;;;2.55;2.15;;;;;;;3.33;65.76;93439.41;4987750;28;20030;-74
2022/04/19 06:53:20;;;;;;;3.05;2.72;;;;;;;3.44;64.92;93434.84;4979183;28;20046;-72
2022/04/19 06:55:45;;;;;;;3.80;2.38;;;;;;;3.43;65.10;93424.66;4984196;28;20026;-73
2022/04/19 06:58:11;;;;;;;3.17;2.08;;;;;;;3.42;65.36;93428.31;4982631;28;20044;-73
2022/04/19 07:00:36;;;;;;;4.70;2.35;;;;;;;3.49;65.79;93447.16;4982744;28;20540;-73
2022/04/19 07:03:01;;;;;;;3.88;2.30;;;;;;;3.59;65.50;93441.81;4985058;28;20042;-73
2022/04/19 07:05:27;;;;;;;3.15;2.20;;;;;;;3.77;64.73;93444.50;4985432;28;20042;-73
2022/04/19 07:07:53;;;;;;;3.65;2.67;;;;;;;3.69;64.34;93445.13;4984974;28;20563;-74
2022/04/19 07:10:18;;;;;;;6.65;3.35;;;;;;;3.64;64.25;93428.63;4984717;28;20036;-72
2022/04/19 07:12:44;;;;;;;4.13;2.08;;;;;;;3.54;64.23;93436.59;4985926;28;20038;-74
2022/04/19 07:15:10;;;;;;;10.65;2.42;;;;;;;3.72;64.00;93441.19;4984019;28;20041;-73
2022/04/19 07:17:43;;;;;;;3.45;2.30;;;;;;;3.79;64.75;93452.91;4975604;28;20030;-73
2022/04/19 07:28:22;;;;;;;2.05;1.75;;;;;;;3.94;64.16;93456.44;4980606;28;20045;-73
2022/04/19 07:30:47;;;;;;;2.75;2.10;;;;;;;3.81;64.28;93453.44;4982604;28;20029;-73
2022/04/19 07:33:13;;;;;;;3.60;2.72;;;;;;;3.86;64.31;93457.88;4981594;28;20536;-72
2022/04/19 07:35:38;;;;;;;3.28;2.65;;;;;;;3.91;63.72;93449.91;4980998;28;20062;-72
2022/04/19 07:38:03;;;;;;;3.15;2.10;;;;;;;4.05;64.68;93457.91;4978282;28;20543;-73
2022/04/19 07:40:30;;;;;;;1.60;1.48;;;;;;;3.97;62.83;93427.72;4982958;28;20450;-72
2022/04/19 07:42:55;;;;;;;2.25;1.50;;;;;;;3.90;62.34;93440.44;4980791;28;20022;-73
2022/04/19 07:45:20;;;;;;;2.88;2.42;;;;;;;3.97;63.24;93459.31;4981481;28;20080;-72
2022/04/19 07:47:47;;;;;;;2.38;1.92;;;;;;;3.85;64.31;93435.25;4981644;28;20045;-73
2022/04/19 07:50:12;;;;;;;2.72;1.92;;;;;;;4.10;65.87;93452.59;4986110;28;20644;-73
2022/04/19 07:52:38;;;;;;;3.80;2.55;;;;;;;3.99;66.38;93446.66;4978491;28;20034;-73
2022/04/19 07:55:03;;;;;;;3.05;2.15;;;;;;;4.09;63.13;93467.59;4975977;28;21957;-73
2022/04/19 07:57:29;;;;;;;2.53;2.00;;;;;;;3.86;63.08;93442.06;4980380;28;20061;-73
2022/04/19 07:59:55;;;;;;;2.35;1.90;;;;;;;3.99;63.82;93453.75;4980904;28;20041;-72
2022/04/19 08:02:21;;;;;;;3.45;2.10;;;;;;;3.85;63.23;93429.97;4977755;28;20038;-72
2022/04/19 08:04:46;;;;;;;1.77;1.60;;;;;;;4.27;63.62;93453.69;4980107;28;20460;-73
2022/04/19 08:07:12;;;;;;;3.83;2.47;;;;;;;4.38;65.04;93448.34;4976814;28;20080;-72
2022/04/19 08:09:38;;;;;;;3.90;2.78;;;;;;;4.56;65.73;93450.19;4979608;28;20585;-73
2022/04/19 08:12:05;;;;;;;2.67;2.10;;;;;;;4.49;61.25;93457.66;4978657;28;20049;-74
2022/04/19 08:14:30;;;;;;;2.38;2.13;;;;;;;4.34;61.74;93453.38;4979806;28;20045;-73
2022/04/19 08:16:56;;;;;;;2.53;2.28;;;;;;;4.19;62.86;93446.44;4976019;28;20599;-73
2022/04/19 08:19:21;;;;;;;3.50;2.42;;;;;;;4.24;62.48;93456.91;4976238;28;20048;-72
2022/04/19 08:21:46;;;;;;;3.83;2.35;;;;;;;4.33;62.39;93461.56;4981632;28;20046;-73
2022/04/19 08:24:12;;;;;;;3.42;2.35;;;;;;;4.36;62.64;93453.09;4981784;28;20573;-73
2022/04/19 08:26:37;;;;;;;2.65;1.90;;;;;;;4.08;60.46;93428.41;4982224;28;20638;-73
2022/04/19 08:29:02;;;;;;;2.38;1.88;;;;;;;4.21;59.85;93452.19;4979635;28;20352;-73
2022/04/19 08:31:28;;;;;;;3.92;2.70;;;;;;;4.36;58.86;93442.56;4981038;28;20558;-73
2022/04/19 08:33:53;;;;;;;2.65;2.22;;;;;;;4.43;58.56;93440.38;4981232;28;20248;-73
2022/04/19 08:36:19;;;;;;;3.50;2.65;;;;;;;4.55;59.55;93432.84;4978455;28;20042;-72
2022/04/19 08:38:46;;;;;;;2.50;2.30;;;;;;;4.75;58.38;93450.97;4977159;28;20125;-73
2022/04/19 08:41:13;;;;;;;4.10;2.80;;;;;;;4.51;55.91;93439.72;4983812;28;20156;-73
2022/04/19 08:43:38;;;;;;;3.17;2.35;;;;;;;3.94;56.34;93373.03;4983093;28;20033;-73
2022/04/19 08:46:06;;;;;;;3.50;2.42;;;;;;;4.34;54.89;93428.91;4985153;28;20026;-74
2022/04/19 08:48:32;;;;;;;2.63;2.42;;;;;;;4.34;54.98;93426.28;4978511;28;20126;-73
2022/04/19 08:51:02;;;;;;;3.58;2.30;;;;;;;4.40;55.34;93436.47;4983789;28;20034;-73
2022/04/19 08:58:57;;;;;;;3.28;2.97;;;;;;;4.55;57.02;93433.59;4985265;28;20049;-74
2022/04/19 09:01:23;;;;;;;3.72;2.88;;;;;;;4.47;55.22;93409.75;4976095;28;20026;-74
2022/04/19 09:03:48;;;;;;;3.38;3.08;;;;;;;4.65;54.85;93419.50;4979515;28;20043;-73
2022/04/19 09:06:14;;;;;;;3.97;3.22;;;;;;;4.81;55.73;93434.03;4983613;28;20080;-73
2022/04/19 09:08:39;;;;;;;3.30;2.50;;;;;;;4.78;55.43;93397.75;4978668;28;20038;-73
2022/04/19 09:11:06;;;;;;;3.78;3.03;;;;;;;5.08;54.58;93431.53;4977649;28;20903;-73
2022/04/19 09:13:33;;;;;;;4.43;2.88;;;;;;;5.14;53.66;93432.22;4985565;28;20476;-74
2022/04/19 09:16:06;;;;;;;3.30;2.90;;;;;;;5.01;54.51;93415.28;4975970;28;20124;-73
2022/04/19 09:18:34;;;;;;;2.95;2.65;;;;;;;4.99;52.41;93416.66;4983163;28;20504;-73
2022/04/19 09:21:01;;;;;;;3.10;2.50;;;;;;;5.18;53.00;93429.81;4984565;28;20046;-73
2022/04/19 09:23:30;;;;;;;3.90;2.97;;;;;;;5.10;53.02;93428.59;4984325;28;20536;-73
2022/04/19 09:26:01;;;;;;;3.33;2.85;;;;;;;5.10;52.42;93418.03;4982400;28;20054;-74
2022/04/19 09:28:28;;;;;;;5.00;3.00;;;;;;;5.39;51.92;93423.09;4984608;28;20029;-74
2022/04/19 09:30:56;;;;;;;4.30;3.50;;;;;;;5.20;52.53;93422.38;4978140;28;20408;-73
2022/04/19 09:33:23;;;;;;;6.38;3.78;;;;;;;5.19;51.79;93424.22;4984064;28;20116;-73
2022/04/19 09:35:53;;;;;;;5.88;3.70;;;;;;;5.17;52.44;93407.16;4974054;28;20120;-73
2022/04/19 09:38:37;;;;;;;4.43;3.33;;;;;;;5.41;51.28;93423.63;4977365;28;20046;-74
2022/04/19 09:41:08;;;;;;;5.28;3.20;;;;;;;5.61;50.05;93415.34;4981076;28;20029;-74
2022/04/19 09:43:34;;;;;;;8.40;3.40;;;;;;;5.25;48.79;93425.72;4981120;28;20080;-74
2022/04/19 09:46:03;;;;;;;4.15;3.75;;;;;;;5.33;50.70;93432.97;4978287;28;20048;-74
2022/04/19 09:48:42;;;;;;;8.55;3.78;;;;;;;5.26;50.95;93424.66;4980533;28;20034;-75
2022/04/19 09:51:12;;;;;;;5.85;3.50;;;;;;;5.30;50.32;93416.94;4981814;28;20049;-72
2022/04/19 09:53:47;;;;;;;5.18;4.18;;;;;;;5.43;50.90;93411.69;4981016;28;20137;-74
2022/04/19 09:56:17;;;;;;;3.85;3.50;;;;;;;5.46;46.85;93402.44;4978865;28;20046;-73
2022/04/19 09:58:45;;;;;;;5.28;3.42;;;;;;;5.37;47.46;93389.13;4978627;28;20117;-74
2022/04/19 10:08:10;;;;;;;5.82;3.70;;;;;;;5.32;48.70;93410.31;4982930;28;20056;-75
2022/04/19 10:09:25;;;;;;;3.65;3.33;;;;;;;5.58;48.25;93397.44;4978177;28;20377;-73
2022/04/19 10:11:51;;;;;;;5.32;3.47;;;;;;;5.81;48.88;93409.69;4979655;28;20034;-71
2022/04/19 10:14:21;;;;;;;5.13;3.38;;;;;;;5.82;48.01;93398.06;4985476;28;20056;-74
2022/04/19 10:16:51;;;;;;;4.47;3.33;;;;;;;5.82;47.09;93408.59;4983482;28;20025;-73
2022/04/19 10:19:19;;;;;;;3.40;3.10;;;;;;;5.76;45.88;93401.88;4983014;28;20073;-72
2022/04/19 10:21:45;;;;;;;4.95;3.75;;;;;;;5.89;47.35;93409.00;4987321;28;20050;-73
2022/04/19 10:24:12;;;;;;;4.57;3.40;;;;;;;6.01;50.10;93395.34;4984327;28;20067;-73
2022/04/19 10:26:56;;;;;;;5.03;2.72;;;;;;;6.08;46.22;93379.09;4979129;28;20221;-73
2022/04/19 10:29:29;;;;;;;3.65;2.97;;;;;;;6.27;46.19;93383.19;4979034;28;20121;-73
2022/04/19 10:32:03;;;;;;;4.68;3.00;;;;;;;6.27;44.84;93383.19;4986981;28;20410;-73
2022/04/19 10:34:34;;;;;;;5.47;3.22;;;;;;;6.40;46.42;93381.63;4983138;28;20546;-73
2022/04/19 10:37:11;;;;;;;3.72;3.15;;;;;;;6.46;45.31;93384.94;4987217;28;20034;-73
2022/04/19 10:39:43;;;;;;;3.15;2.50;;;;;;;6.16;43.57;93354.69;4980095;28;20777;-73
2022/04/19 10:42:30;;;;;;;8.18;2.67;;;;;;;6.17;42.44;93372.06;4987286;28;20041;-73
2022/04/19 10:44:56;;;;;;;2.67;2.35;;;;;;;5.99;43.50;93358.66;4984870;28;20203;-75
2022/04/19 10:47:23;;;;;;;5.30;2.65;;;;;;;6.27;44.42;93395.63;4979291;28;20482;-74
2022/04/19 10:50:02;;;;;;;4.40;3.10;;;;;;;6.25;42.80;93400.44;4985439;28;20014;-74
2022/04/19 10:52:39;;;;;;;3.00;2.67;;;;;;;6.28;43.69;93395.31;5000358;28;20021;-74
2022/04/19 10:55:10;;;;;;;4.25;3.00;;;;;;;6.37;43.73;93398.03;4985546;28;20038;-73
2022/04/19 11:00:27;;;;;;;3.45;2.30;;;;;;;6.33;43.73;93402.38;4988741;28;20111;-74
2022/04/19 11:03:01;;;;;;;3.55;3.05;;;;;;;6.11;44.89;93395.13;4986957;28;20137;-73
2022/04/19 11:05:44;;;;;;;2.95;2.20;;;;;;;6.13;45.94;93400.88;4985071;28;20045;-73
2022/04/19 11:08:25;;;;;;;2.40;2.13;;;;;;;6.09;46.11;93401.78;4985746;28;20088;-73
2022/04/19 11:11:02;;;;;;;2.92;2.20;;;;;;;6.20;46.63;93392.59;4986821;28;20037;-73
2022/04/19 11:13:32;;;;;;;3.75;2.50;;;;;;;6.26;45.10;93388.78;4988000;28;20123;-74
2022/04/19 11:16:00;;;;;;;5.32;2.80;;;;;;;6.24;43.04;93383.81;4977587;28;20053;-73
2022/04/19 11:18:27;;;;;;;3.50;2.45;;;;;;;6.19;45.12;93364.63;4984747;28;20464;-72
2022/04/19 11:20:56;;;;;;;3.40;2.25;;;;;;;6.24;43.11;93385.66;4987998;28;20033;-74
2022/04/19 11:23:24;;;;;;;3.95;2.83;;;;;;;6.35;41.63;93353.47;4986665;28;20046;-73
2022/04/19 11:25:51;;;;;;;3.72;2.35;;;;;;;6.62;42.15;93360.50;4981433;28;20443;-73
2022/04/19 11:28:31;;;;;;;3.20;2.30;;;;;;;6.70;40.80;93332.63;4990507;28;20096;-73
2022/04/19 11:30:56;;;;;;;4.30;3.08;;;;;;;6.83;41.36;93364.25;4985192;28;20048;-75
2022/04/19 11:33:34;;;;;;;3.50;2.53;;;;;;;6.83;40.03;93369.56;4989127;28;20046;-74
2022/04/19 11:36:02;;;;;;;3.30;2.53;;;;;;;7.05;40.72;93366.13;4979751;28;20046;-73
2022/04/19 11:38:29;;;;;;;3.38;2.20;;;;;;;6.96;39.76;93338.06;5003809;28;20042;-73
2022/04/19 11:46:45;;;;;;;3.50;2.60;;;;;;;7.38;38.26;93364.00;4980529;28;20093;-74
2022/04/19 11:49:19;;;;;;;2.22;1.90;;;;;;;7.61;37.81;93362.84;4989314;28;20042;-75
2022/04/19 11:51:56;;;;;;;2.37;2.10;;;;;;;7.50;38.03;93358.13;4978995;28;20042;-74
2022/04/19 11:54:30;;;;;;;2.45;2.20;;;;;;;7.55;38.16;93350.84;4985631;28;20046;-74
2022/04/19 11:57:04;;;;;;;2.22;1.90;;;;;;;7.49;36.50;93348.63;4983578;28;20042;-74
2022/04/19 11:59:40;;;;;;;1.77;1.60;;;;;;;7.33;37.00;93356.19;4988818;28;20121;-74
2022/04/19 12:02:24;;;;;;;2.50;2.10;;;;;;;7.23;38.72;93370.44;4983047;28;20113;-73
2022/04/19 12:04:51;;;;;;;3.20;2.13;;;;;;;7.08;40.97;93359.47;4986036;28;20029;-74
2022/04/19 12:07:16;;;;;;;4.60;2.40;;;;;;;6.89;41.21;93377.38;4985933;28;20022;-73
2022/04/19 12:09:44;;;;;;;2.55;2.20;;;;;;;6.52;41.83;93355.47;4984469;28;20108;-74
2022/04/19 12:12:10;;;;;;;2.72;2.30;;;;;;;6.63;41.12;93359.44;4986247;28;20045;-74
2022/04/19 12:14:36;;;;;;;3.17;2.53;;;;;;;6.92;42.00;93363.53;4984740;28;20400;-74
2022/04/19 12:17:08;;;;;;;4.47;2.28;;;;;;;7.11;40.23;93374.72;4990064;28;20129;-72
2022/04/19 12:19:42;;;;;;;3.70;2.20;;;;;;;6.96;40.68;93343.34;4986390;28;20498;-74
2022/04/19 12:22:21;;;;;;;39.07;13.07;;;;;;;6.74;40.57;93360.78;4988471;28;20620;-74
2022/04/19 12:24:52;;;;;;;5.72;3.22;;;;;;;7.18;41.56;93353.91;4983728;28;20049;-74
2022/04/19 12:27:23;;;;;;;11.57;4.32;;;;;;;7.42;39.07;93356.22;4987731;28;20508;-74